Nearby METAR Reports


Data Updates Approximately Every Four Hours

METAR is the international standard code format for hourly surface weather observations which is analogous to the SA coding currently used in the US. The acronym roughly translates from French as Aviation Routine Weather Report. SPECI is merely the code name given to METAR formatted products which are issued on a special non-routine basis as dictated by changing meteorological conditions. The SPECI acronym roughly translates as Aviation Selected Special Weather Report.

KSLH - Cheboygan, Michigan, USA
Distance from station: W 9mi, 14km
Updated: 01/23/2020 1:15am
Overcast
Overcast
 Wind from SSW
Wind: SSW 8 mph , 13 km/h
Temperature: 34°F , 1°C
Wind Chill: 27°F , -3°C
Dew Point: 25°F , -4°C
Humidity: 70%
Barometer: 30.09 inHg , 1019 hPa
Clouds: Overcast
Visibility: 10 miles , 16 km
Cloud details: Overcast 11000 ft
2020/01/23 06:15 KSLH 230615Z AUTO 21007KT 10SM OVC110 01/M04 A3009 RMK AO2 T00121041
KMCD - Mackinac Island, Michigan, USA
Distance from station: NW 19mi, 31km
Updated: 01/23/2020 1:16am
Overcast
Overcast
 Wind from SSW
Wind: SSW 7 mph , 11 km/h
Temperature: 34°F , 1°C
Wind Chill: 28°F , -2°C
Dew Point: 28°F , -2°C
Humidity: 81%
Barometer: 30.08 inHg , 1018.6 hPa
Clouds: Overcast
Visibility: 10 miles , 16 km
Cloud details: Mostly cloudy 2200 ft
Overcast 10000 ft
2020/01/23 06:16 KMCD 230616Z AUTO 20006KT 10SM BKN022 OVC100 01/M02 A3008 RMK AO2 T00061017
 
KPLN - Pellston, Michigan, USA
Distance from station: WSW 24mi, 38km
Updated: 01/23/2020 12:54am
Overcast
Overcast
 Wind from S
Wind: S 5 mph , 7 km/h
Temperature: 34°F , 1°C
Wind Chill: 29°F , -2°C
Dew Point: 25°F , -4°C
Humidity: 70%
Barometer: 30.10 inHg , 1019.3 hPa
Clouds: Overcast
Visibility: 10 miles , 16 km
Cloud details: Overcast 10000 ft
2020/01/23 05:54 KPLN 230554Z AUTO 18004KT 10SM OVC100 01/M04 A3010 RMK AO2 SLP202 60000 T00111044 10033 20011 51003
KPZQ - Rogers City, Michigan, USA
Distance from station: SE 31mi, 50km
Updated: 01/23/2020 1:15am
Clear
Clear
 Wind from S
Wind: S 3 mph , 6 km/h
Temperature: 32°F , 0°C
Dew Point: 21°F , -6°C
Humidity: 64%
Barometer: 30.12 inHg , 1020 hPa
Clouds: Clear
Visibility: 10 miles , 16 km
2020/01/23 06:15 KPZQ 230615Z AUTO 18003KT 10SM CLR 00/M06 A3012 RMK AO2 T00001058
 
KMGN - Harbor Springs, Michigan, USA
Distance from station: WSW 32mi, 52km
Updated: 01/23/2020 1:15am
Overcast
Overcast
 Wind from SW
Wind: SW 6 mph , 9 km/h
Temperature: 34°F , 1°C
Wind Chill: 29°F , -2°C
Dew Point: 27°F , -3°C
Humidity: 75%
Barometer: 30.10 inHg , 1019.3 hPa
Clouds: Overcast
Visibility: 10 miles , 16 km
Cloud details: Overcast 10000 ft
2020/01/23 06:15 KMGN 230615Z AUTO 23005KT 10SM OVC100 01/M03 A3010 RMK AO2 T00101040
KDRM - Drummond Is, Michigan, USA
Distance from station: NE 36mi, 59km
Updated: 01/23/2020 1:16am
Overcast
Overcast
 Wind from SSW
Wind: SSW 6 mph , 9 km/h
Temperature: 34°F , 1°C
Wind Chill: 29°F , -2°C
Dew Point: 32°F , 0°C
Humidity: 93%
Barometer: 30.10 inHg , 1019.3 hPa
Clouds: Overcast
Visibility: 10 miles , 16 km
Cloud details: Partly cloudy 2100 ft
Mostly cloudy 3800 ft
Overcast 8500 ft
2020/01/23 06:16 KDRM 230616Z AUTO 21005KT 10SM SCT021 BKN038 OVC085 01/00 A3010 RMK AO2 T00081005
 
KCIU - Chippewa Intl, Michigan, USA
Distance from station: N 41mi, 66km
Updated: 01/23/2020 12:56am
Overcast
Overcast
 Wind from WSW
Wind: WSW 7 mph , 11 km/h
Temperature: 32°F , 0°C
Wind Chill: 25°F , -4°C
Dew Point: 30°F , -1°C
Humidity: 93%
Barometer: 30.07 inHg , 1018.3 hPa
Clouds: Overcast
Visibility: 9 miles , 14 km
Cloud details: Overcast 600 ft
2020/01/23 05:56 KCIU 230556Z AUTO 25006KT 9SM OVC006 00/M01 A3007 RMK AO2 RAB25E28UPB28E54SNE25 CIG 005V010 SLP191 P0000 60001 T00001006 10011 20000 50004 FZRANO
KGLR - Gaylord, Michigan, USA
Distance from station: SSW 48mi, 77km
Updated: 01/23/2020 12:53am
Overcast
Overcast
 Wind from SSW
Wind: SSW 10 mph , 17 km/h
Temperature: 28°F , -2°C
Wind Chill: 19°F , -7°C
Dew Point: 19°F , -7°C
Humidity: 69%
Barometer: 30.09 inHg , 1019 hPa
Clouds: Overcast
Visibility: 10 miles , 16 km
Cloud details: Overcast 11000 ft
2020/01/23 05:53 KGLR 230553Z AUTO 20009KT 10SM OVC110 M02/M07 A3009 RMK AO2 SLP206 T10171072 11006 21017 53001
 
KCVX - Charlevoix, Michigan, USA
Distance from station: WSW 52mi, 83km
Updated: 01/23/2020 1:16am
Overcast
Overcast
 Wind from S
Wind: S 8 mph , 13 km/h
Temperature: 34°F , 1°C
Wind Chill: 27°F , -3°C
Dew Point: 23°F , -5°C
Humidity: 65%
Barometer: 30.09 inHg , 1019 hPa
Clouds: Overcast
Visibility: 10 miles , 16 km
Cloud details: Overcast 10000 ft
2020/01/23 06:16 KCVX 230616Z AUTO 18007KT 10SM OVC100 01/M05 A3009 RMK AO2 T00081054
KANJ - Sault Ste Marie, Michigan, USA
Distance from station: N 56mi, 89km
Updated: 01/23/2020 12:55am
Light snow, Overcast
Light snow, Overcast
 Wind from SW
Wind: SW 12 mph , 19 km/h
Temperature: 36°F , 2°C
Wind Chill: 28°F , -2°C
Dew Point: 32°F , 0°C
Humidity: 87%
Barometer: 30.07 inHg , 1018.3 hPa
Summary: Light Snow
Clouds: Overcast
Visibility: 7 miles , 11 km
Cloud details: Overcast 900 ft
2020/01/23 05:55 KANJ 230555Z AUTO 22010KT 7SM -SN OVC009 02/00 A3007 RMK AO2 SNB51 CIG 007V012 SLP187 P0000 60008 T00170000 10017 20011 53003
 
KAPN - Alpena, Michigan, USA
Distance from station: SE 56mi, 89km
Updated: 01/23/2020 12:54am
Clear
Clear
 Wind from S
Wind: S 5 mph , 7 km/h
Temperature: 30°F , -1°C
Wind Chill: 25°F , -4°C
Dew Point: 19°F , -7°C
Humidity: 64%
Barometer: 30.14 inHg , 1020.7 hPa
Clouds: Clear
Visibility: 10 miles , 16 km
2020/01/23 05:54 KAPN 230554Z 19004KT 10SM CLR M01/M07 A3014 RMK AO2 SLP214 T10111072 10000 21017 53003
CYAM - Sault Ste Marie, Ontario, Canada
Distance from station: N 56mi, 90km
Updated: 01/23/2020 1:00am
Light snow, Overcast
Light snow, Overcast
 Wind from SW
Wind: SW 6 mph , 9 km/h
Temperature: 34°F , 1°C
Wind Chill: 29°F , -2°C
Dew Point: 32°F , 0°C
Humidity: 93%
Barometer: 30.07 inHg , 1018.3 hPa
Summary: Light Snow
Clouds: Overcast
Visibility: 10 miles , 16 km
Cloud details: Few Clouds 600 ft
Mostly cloudy 900 ft
Overcast 1100 ft
2020/01/23 06:00 CYAM 230600Z 22005KT 10SM -SN FEW006 BKN009 OVC011 01/M00 A3007 RMK SF1CF5SC3 SF TR /S02/ SLP192
 
KSJX - Beaver Island, Michigan, USA
Distance from station: W 60mi, 96km
Updated: 01/23/2020 1:15am
Overcast
Overcast
 Wind from SW
Wind: SW 12 mph , 19 km/h, Gust: 18 mph , 30 km/h
Temperature: 36°F , 2°C
Wind Chill: 28°F , -2°C
Dew Point: 32°F , 0°C
Humidity: 87%
Barometer: 30.08 inHg , 1018.6 hPa
Clouds: Overcast
Visibility: 10 miles , 16 km
Cloud details: Mostly cloudy 1600 ft
Overcast 10000 ft
2020/01/23 06:15 KSJX 230615Z AUTO 22010G16KT 10SM BKN016 OVC100 02/00 A3008 RMK AO2 T00200000
KACB - Bellaire, Michigan, USA
Distance from station: SW 63mi, 102km
Updated: 01/23/2020 1:15am
Overcast
Overcast
 Wind from SSE
Wind: SSE 5 mph , 7 km/h
Temperature: 32°F , 0°C
Wind Chill: 27°F , -3°C
Dew Point: 21°F , -6°C
Humidity: 64%
Barometer: 30.10 inHg , 1019.3 hPa
Clouds: Overcast
Visibility: 10 miles , 16 km
Cloud details: Overcast 10000 ft
2020/01/23 06:15 KACB 230615Z AUTO 16004KT 10SM OVC100 00/M06 A3010 RMK AO2 T00021062
 
CWNL - Great Duck Island, Ontario, Canada
Distance from station: E 66mi, 106km
Updated: 01/23/2020 12:00am
NOT Current

 Wind from SW
Wind: SW 15 mph , 24 km/h
Temperature: 34°F , 1°C
Wind Chill: 24°F , -4°C
Dew Point: 27°F , -3°C
Humidity: 75%
2020/01/23 05:00 CWNL 230500Z AUTO 23013KT 01/M03 RMK AO1 PK WND 25017/0401 SLP208 T00131033 52007
KERY - Newberry, Michigan, USA
Distance from station: NW 69mi, 112km
Updated: 01/23/2020 1:16am
Light snow, Overcast
Light snow, Overcast
 Wind from SSW
Wind: SSW 12 mph , 19 km/h
Temperature: 34°F , 1°C
Wind Chill: 25°F , -4°C
Dew Point: 32°F , 0°C
Humidity: 93%
Barometer: 30.05 inHg , 1017.6 hPa
Summary: Light Snow
Clouds: Overcast
Visibility: 3 miles , 5 km
Cloud details: Overcast 600 ft
2020/01/23 06:16 KERY 230616Z AUTO 21010KT 3SM -SN OVC006 01/00 A3005 RMK AO2 T00110000
 
KGOV - Grayling Af, Michigan, USA
Distance from station: SSW 70mi, 113km
Updated: 01/23/2020 12:58am

 Wind from S
Wind: S 5 mph , 7 km/h
Visibility: 10 miles , 16 km
2020/01/23 05:58 KGOV 230558Z AUTO 17004KT 10SM M M02/M08 A3010 RMK AO2 SLP213 T10191076 11003 21019 55002 $